Time;durP1;ratioP1;P1;durP2;ratioP2;P2;SDS_P1;SDS_P2;PMS_P1;PMS_P2;Temp;Humidity;BMP_temperature;BMP_pressure;BME280_temperature;BME280_humidity;BME280_pressure;Samples;Min_cycle;Max_cycle;Signal;HPM_P1;HPM_P2
2021/01/16 00:01:11;;;;;;;4.80;2.50;;;;;;;-0.44;46.12;102893.91;5032409;28;20034;-89
2021/01/16 00:03:37;;;;;;;6.90;3.17;;;;;;;-0.35;45.70;102898.53;5049725;28;20033;-91
2021/01/16 00:06:07;;;;;;;7.95;2.67;;;;;;;-0.38;45.69;102904.44;5032459;28;20037;-90
2021/01/16 00:08:33;;;;;;;8.00;2.60;;;;;;;-0.42;45.68;102882.00;5023742;28;20043;-91
2021/01/16 00:11:07;;;;;;;8.02;3.42;;;;;;;-0.39;45.62;102888.97;5033973;28;20048;-91
2021/01/16 00:13:39;;;;;;;5.65;2.47;;;;;;;-0.38;45.51;102893.28;5034127;28;20064;-89
2021/01/16 00:16:08;;;;;;;7.50;3.13;;;;;;;-0.41;45.86;102888.03;5015148;28;20133;-90
2021/01/16 00:18:35;;;;;;;6.60;2.78;;;;;;;-0.42;45.57;102876.00;5033829;28;20073;-91
2021/01/16 00:21:10;;;;;;;4.88;2.58;;;;;;;-0.42;45.52;102874.28;5020447;28;20030;-91
2021/01/16 00:23:39;;;;;;;6.93;3.45;;;;;;;-0.53;45.32;102867.00;5035135;28;20100;-92
2021/01/16 00:28:44;;;;;;;6.78;2.80;;;;;;;-0.73;45.95;102864.53;5144982;27;20353;-71
2021/01/16 00:31:11;;;;;;;6.88;2.30;;;;;;;-0.62;45.61;102858.13;5143940;27;20042;-71
2021/01/16 00:33:36;;;;;;;6.80;3.17;;;;;;;-0.58;45.57;102864.25;5127763;27;20039;-72
2021/01/16 00:36:06;;;;;;;4.82;2.17;;;;;;;-0.65;45.46;102858.00;5126482;27;20476;-71
2021/01/16 00:38:42;;;;;;;4.03;2.50;;;;;;;-0.49;45.26;102864.59;5128693;27;20034;-71
2021/01/16 00:41:07;;;;;;;5.53;2.30;;;;;;;-0.50;45.08;102868.00;5137206;27;20089;-71
2021/01/16 00:43:33;;;;;;;8.80;3.25;;;;;;;-0.50;45.60;102862.88;5127048;27;20591;-71
2021/01/16 00:45:59;;;;;;;8.70;2.55;;;;;;;-0.44;45.39;102867.34;5127455;27;20091;-71
2021/01/16 00:48:25;;;;;;;5.25;2.63;;;;;;;-0.37;45.56;102861.63;5129034;27;20027;-71
2021/01/16 00:50:55;;;;;;;6.38;2.25;;;;;;;-0.14;44.75;102863.34;5127752;27;20119;-71
2021/01/16 00:53:28;;;;;;;6.18;2.70;;;;;;;-0.15;44.58;102856.47;5111412;27;20435;-71
2021/01/16 00:55:58;;;;;;;7.93;3.35;;;;;;;-0.27;44.71;102866.28;5126090;27;20031;-71
2021/01/16 00:58:29;;;;;;;6.10;2.95;;;;;;;-0.21;44.75;102870.81;5127202;27;20030;-71
2021/01/16 01:01:01;;;;;;;6.00;2.45;;;;;;;-0.13;44.04;102865.09;5111238;27;20484;-71
2021/01/16 01:03:32;;;;;;;7.53;2.55;;;;;;;-0.19;43.88;102856.28;5126728;27;20031;-71
2021/01/16 01:05:57;;;;;;;5.22;2.47;;;;;;;-0.29;44.14;102857.66;5128716;27;20059;-71
2021/01/16 01:08:29;;;;;;;3.05;1.92;;;;;;;-0.46;44.90;102853.56;5126393;27;20106;-71
2021/01/16 01:10:56;;;;;;;7.00;2.90;;;;;;;-0.44;44.85;102857.94;5108936;27;20032;-71
2021/01/16 01:13:21;;;;;;;7.57;2.70;;;;;;;-0.43;45.19;102864.84;5127592;27;20041;-71
2021/01/16 01:15:47;;;;;;;5.22;2.67;;;;;;;-0.33;45.23;102870.31;5113110;27;20039;-71
2021/01/16 01:18:12;;;;;;;8.75;2.22;;;;;;;-0.27;44.25;102863.72;5129878;27;20019;-71
2021/01/16 01:20:38;;;;;;;7.00;2.50;;;;;;;-0.18;44.21;102869.19;5127518;27;20046;-71
2021/01/16 01:23:04;;;;;;;9.40;2.38;;;;;;;-0.15;44.21;102864.19;5111277;28;20449;-71
2021/01/16 01:25:29;;;;;;;4.47;2.10;;;;;;;-0.22;44.07;102853.59;5128957;27;20039;-71
2021/01/16 01:27:58;;;;;;;9.45;3.05;;;;;;;-0.29;43.95;102852.50;5128046;27;20472;-71
2021/01/16 01:30:26;;;;;;;5.90;2.58;;;;;;;-0.33;44.28;102853.22;5128515;27;20036;-70
2021/01/16 01:32:53;;;;;;;5.15;2.20;;;;;;;-0.26;44.68;102852.63;5127726;27;21829;-71
2021/01/16 01:35:19;;;;;;;6.22;2.58;;;;;;;-0.25;44.37;102850.94;5110480;28;20019;-71
2021/01/16 01:37:47;;;;;;;6.13;2.58;;;;;;;-0.21;44.09;102845.09;5126683;27;20027;-71
2021/01/16 01:40:14;;;;;;;6.38;2.30;;;;;;;-0.22;44.08;102844.19;5096166;28;20024;-71
2021/01/16 01:42:40;;;;;;;6.95;1.98;;;;;;;-0.20;43.99;102847.69;5113969;28;20042;-71
2021/01/16 01:45:09;;;;;;;6.82;3.08;;;;;;;-0.16;43.42;102847.00;5114515;28;20036;-71
2021/01/16 01:47:39;;;;;;;7.45;2.55;;;;;;;-0.14;43.45;102847.94;5129214;27;20103;-71
2021/01/16 01:50:06;;;;;;;7.30;2.75;;;;;;;-0.23;43.99;102837.31;5114385;28;20032;-71
2021/01/16 01:52:33;;;;;;;5.35;2.33;;;;;;;-0.36;44.53;102825.72;5113594;28;20031;-71
2021/01/16 01:54:59;;;;;;;9.90;2.83;;;;;;;-0.44;45.16;102831.38;5112068;28;20040;-71
2021/01/16 01:57:26;;;;;;;7.82;2.90;;;;;;;-0.49;45.01;102833.78;5114147;27;20023;-72
2021/01/16 01:59:54;;;;;;;6.82;3.10;;;;;;;-0.39;44.95;102829.88;5112760;28;20034;-72
2021/01/16 02:02:21;;;;;;;7.95;2.97;;;;;;;-0.41;45.07;102826.38;5102355;28;20024;-71
2021/01/16 02:04:49;;;;;;;9.25;3.05;;;;;;;-0.47;45.17;102826.13;5125381;27;20248;-71
2021/01/16 02:07:29;;;;;;;6.40;3.25;;;;;;;-0.42;45.41;102822.03;5122020;28;20057;-71
2021/01/16 02:09:55;;;;;;;7.75;2.95;;;;;;;-0.36;45.26;102824.84;5111818;28;20124;-71
2021/01/16 02:12:22;;;;;;;6.75;2.08;;;;;;;-0.41;45.43;102821.25;5112586;28;20111;-71
2021/01/16 02:15:26;;;;;;;8.05;3.30;;;;;;;-0.53;45.92;102816.50;5113182;28;20027;-71
2021/01/16 02:18:00;;;;;;;6.43;2.33;;;;;;;-0.48;46.18;102819.22;5045686;28;20039;-71
2021/01/16 02:20:28;;;;;;;6.53;2.75;;;;;;;-0.40;46.08;102817.84;5113515;27;20040;-71
2021/01/16 02:23:16;;;;;;;8.27;2.85;;;;;;;-0.49;45.90;102814.94;5112190;28;20496;-71
2021/01/16 02:25:41;;;;;;;5.95;2.83;;;;;;;-0.36;46.10;102814.56;5110464;28;20028;-71
2021/01/16 02:28:16;;;;;;;10.02;3.95;;;;;;;-0.48;46.25;102819.22;5112911;27;20572;-71
2021/01/16 02:30:43;;;;;;;9.00;3.00;;;;;;;-0.44;46.55;102823.66;5112338;28;20067;-71
2021/01/16 02:33:11;;;;;;;7.63;3.10;;;;;;;-0.63;47.03;102812.72;5111889;28;20062;-71
2021/01/16 02:35:47;;;;;;;8.23;3.15;;;;;;;-0.67;47.67;102809.97;5112722;28;20030;-71
2021/01/16 02:38:46;;;;;;;6.25;2.67;;;;;;;-0.66;47.83;102809.16;5126726;27;20031;-71
2021/01/16 02:41:59;;;;;;;6.93;3.53;;;;;;;-0.69;48.18;102803.91;5121883;27;20043;-72
2021/01/16 02:44:42;;;;;;;7.45;4.03;;;;;;;-0.98;48.85;102807.09;5098965;28;20047;-70
2021/01/16 02:47:35;;;;;;;9.23;3.70;;;;;;;-0.94;48.47;102791.84;5112979;28;20096;-70
2021/01/16 02:50:06;;;;;;;12.45;3.15;;;;;;;-0.89;48.56;102795.44;5111644;28;20572;-70
2021/01/16 02:52:39;;;;;;;10.10;3.93;;;;;;;-1.01;48.64;102795.84;5112737;28;20023;-70
2021/01/16 02:55:07;;;;;;;6.40;2.33;;;;;;;-0.97;48.84;102793.47;5094363;28;20027;-71
2021/01/16 02:57:33;;;;;;;6.50;2.45;;;;;;;-0.83;48.15;102801.69;5107946;28;20484;-71
2021/01/16 02:59:58;;;;;;;9.75;2.83;;;;;;;-0.77;47.58;102791.66;5112597;27;20027;-71
2021/01/16 03:02:24;;;;;;;4.38;1.90;;;;;;;-0.90;47.89;102779.16;5128811;27;20073;-70
2021/01/16 03:04:49;;;;;;;4.78;2.38;;;;;;;-0.83;47.81;102777.72;5110466;27;20031;-71
2021/01/16 03:07:16;;;;;;;6.90;2.25;;;;;;;-0.77;47.88;102765.13;5110984;28;20020;-70
2021/01/16 03:09:41;;;;;;;4.97;1.67;;;;;;;-0.72;47.55;102768.72;5110545;28;20038;-71
2021/01/16 03:12:09;;;;;;;6.47;2.65;;;;;;;-0.82;47.41;102766.63;5111772;28;20087;-70
2021/01/16 03:14:51;;;;;;;7.72;2.53;;;;;;;-1.08;47.69;102761.34;5108643;28;20047;-70
2021/01/16 03:17:18;;;;;;;7.05;2.38;;;;;;;-1.01;47.73;102773.63;5112012;28;20023;-70
2021/01/16 03:19:48;;;;;;;12.13;3.88;;;;;;;-1.07;48.05;102769.91;5111477;28;20031;-71
2021/01/16 03:22:23;;;;;;;9.20;2.97;;;;;;;-0.99;47.89;102772.00;5115984;27;20391;-71
2021/01/16 03:24:54;;;;;;;7.00;2.67;;;;;;;-1.10;48.36;102770.66;5110198;28;20053;-71
2021/01/16 03:27:21;;;;;;;6.70;2.55;;;;;;;-0.99;48.30;102761.72;5125187;27;20080;-71
2021/01/16 03:29:46;;;;;;;7.43;2.90;;;;;;;-0.84;47.97;102757.97;5100459;28;20019;-71
2021/01/16 03:32:13;;;;;;;7.45;3.03;;;;;;;-0.80;47.91;102759.84;5111759;27;20031;-71
2021/01/16 03:34:41;;;;;;;6.22;2.47;;;;;;;-0.70;47.54;102746.53;5098233;28;20069;-71
2021/01/16 03:37:07;;;;;;;11.90;3.40;;;;;;;-0.74;47.41;102747.25;5111831;27;20396;-71
2021/01/16 03:39:33;;;;;;;5.60;2.58;;;;;;;-0.60;47.55;102743.47;5112046;27;20412;-71
2021/01/16 03:41:59;;;;;;;6.50;3.22;;;;;;;-0.57;47.11;102748.75;5094089;28;20459;-71
2021/01/16 03:44:24;;;;;;;9.60;2.75;;;;;;;-0.69;47.38;102745.72;5094445;28;20027;-71
2021/01/16 03:46:50;;;;;;;7.65;2.97;;;;;;;-0.58;47.15;102740.97;5110817;28;20138;-71
2021/01/16 03:49:16;;;;;;;6.15;2.58;;;;;;;-0.65;46.85;102729.59;5113285;28;20027;-71
2021/01/16 03:51:42;;;;;;;4.13;2.35;;;;;;;-0.83;47.17;102734.06;5112418;27;20106;-72
2021/01/16 03:54:08;;;;;;;13.25;2.80;;;;;;;-0.69;46.57;102743.16;5116107;27;20035;-71
2021/01/16 03:56:34;;;;;;;6.85;2.67;;;;;;;-0.68;46.55;102732.06;5095784;28;20058;-72
2021/01/16 03:59:01;;;;;;;10.93;3.33;;;;;;;-0.65;46.47;102733.88;5092228;28;20035;-71
2021/01/16 04:01:26;;;;;;;5.00;2.42;;;;;;;-0.69;46.47;102727.72;5111741;27;20031;-72
2021/01/16 04:03:52;;;;;;;6.93;2.63;;;;;;;-0.62;46.12;102722.00;5111948;27;20047;-71
2021/01/16 04:06:20;;;;;;;8.95;3.35;;;;;;;-0.66;46.27;102715.03;5111163;28;20088;-71
2021/01/16 04:08:46;;;;;;;5.10;2.60;;;;;;;-0.49;46.36;102719.88;5112257;27;20043;-72
2021/01/16 04:11:11;;;;;;;7.88;2.85;;;;;;;-0.54;45.97;102711.16;5109618;28;20063;-72
2021/01/16 04:13:38;;;;;;;7.93;3.05;;;;;;;-0.62;46.29;102708.28;5094237;28;20031;-71
2021/01/16 04:16:05;;;;;;;7.63;2.58;;;;;;;-0.62;46.32;102706.59;5112819;28;20373;-72
2021/01/16 04:18:30;;;;;;;5.97;2.67;;;;;;;-0.65;47.02;102697.91;5111098;28;20205;-72
2021/01/16 04:20:56;;;;;;;5.68;2.28;;;;;;;-0.68;46.46;102698.69;5111780;28;20121;-71
2021/01/16 04:23:22;;;;;;;5.25;2.38;;;;;;;-0.61;46.31;102692.94;5112154;28;20087;-72
2021/01/16 04:25:47;;;;;;;8.02;2.70;;;;;;;-0.54;45.81;102691.47;5111322;28;20039;-71
2021/01/16 04:28:13;;;;;;;6.05;2.78;;;;;;;-0.51;45.72;102689.00;5110152;28;20027;-71
2021/01/16 04:30:38;;;;;;;4.90;2.35;;;;;;;-0.49;45.98;102689.91;5110617;28;20035;-71
2021/01/16 04:33:04;;;;;;;3.83;1.80;;;;;;;-0.53;45.28;102687.19;5093979;28;20107;-71
2021/01/16 04:35:30;;;;;;;8.15;3.00;;;;;;;-0.50;45.31;102682.16;5109692;28;20114;-72
2021/01/16 04:37:55;;;;;;;8.50;3.05;;;;;;;-0.45;45.64;102683.22;5110261;28;20032;-72
2021/01/16 04:40:21;;;;;;;6.43;2.28;;;;;;;-0.63;46.40;102676.59;5111489;28;20023;-71
2021/01/16 04:42:47;;;;;;;6.55;2.30;;;;;;;-0.71;46.18;102672.88;5111343;28;20032;-72
2021/01/16 04:45:15;;;;;;;7.53;2.63;;;;;;;-0.69;46.08;102668.66;5112065;28;20039;-71
2021/01/16 04:47:45;;;;;;;4.28;1.88;;;;;;;-0.63;45.94;102662.88;5111513;28;20024;-72
2021/01/16 04:50:13;;;;;;;6.15;2.30;;;;;;;-0.60;45.83;102663.84;5113516;28;20028;-72
2021/01/16 04:52:41;;;;;;;9.15;2.70;;;;;;;-1.31;47.35;102657.81;5114194;28;20031;-72
2021/01/16 04:55:11;;;;;;;7.97;1.90;;;;;;;-0.68;46.29;102655.03;5110620;28;20031;-71
2021/01/16 04:57:38;;;;;;;6.22;2.30;;;;;;;-1.25;47.23;102652.03;5112100;28;20032;-71
2021/01/16 05:00:10;;;;;;;4.03;2.10;;;;;;;-1.20;47.52;102645.38;5112249;28;20031;-71
2021/01/16 05:02:39;;;;;;;6.72;2.55;;;;;;;-0.82;46.34;102645.94;5093951;28;20389;-72
2021/01/16 05:05:07;;;;;;;8.98;2.97;;;;;;;-0.98;46.65;102650.50;5112681;28;20045;-72
2021/01/16 05:07:33;;;;;;;8.32;2.78;;;;;;;-0.76;46.28;102651.31;5113324;28;20023;-72
2021/01/16 05:10:04;;;;;;;4.60;2.35;;;;;;;-0.88;46.69;102656.00;5094932;28;20099;-72
2021/01/16 05:12:40;;;;;;;5.07;2.77;;;;;;;-0.95;46.92;102659.16;5128946;27;20040;-72
2021/01/16 05:15:09;;;;;;;6.45;2.40;;;;;;;-0.71;46.11;102651.47;5114619;28;20059;-70
2021/01/16 05:17:58;;;;;;;6.57;3.70;;;;;;;-0.52;45.67;102650.44;5115602;27;20071;-73
2021/01/16 05:20:24;;;;;;;8.52;3.25;;;;;;;-0.46;45.42;102645.47;5116310;28;20035;-72
2021/01/16 05:22:50;;;;;;;8.23;3.78;;;;;;;-0.38;45.17;102637.22;5133177;27;20023;-71
2021/01/16 05:25:16;;;;;;;8.90;3.65;;;;;;;-0.54;45.33;102637.53;5126860;28;20035;-70
2021/01/16 05:27:57;;;;;;;6.13;3.17;;;;;;;-0.52;45.54;102635.03;5129003;27;20045;-71
2021/01/16 05:30:23;;;;;;;5.95;2.20;;;;;;;-0.45;45.56;102639.53;5116552;28;20070;-71
2021/01/16 05:32:49;;;;;;;8.45;4.13;;;;;;;-0.46;45.55;102638.66;5115674;27;20100;-71
2021/01/16 05:35:20;;;;;;;5.90;3.03;;;;;;;-0.42;45.75;102629.34;5117266;27;20078;-72
2021/01/16 05:37:47;;;;;;;5.70;2.88;;;;;;;-0.38;45.77;102633.78;5114149;27;20057;-73
2021/01/16 05:40:14;;;;;;;7.10;2.40;;;;;;;-0.36;45.74;102620.16;5113787;28;20775;-71
2021/01/16 05:42:40;;;;;;;8.98;3.92;;;;;;;-0.33;45.58;102624.50;5114078;28;20036;-72
2021/01/16 05:45:08;;;;;;;6.07;3.47;;;;;;;-0.36;45.85;102619.28;5114253;27;20028;-73
2021/01/16 05:47:35;;;;;;;8.45;3.55;;;;;;;-0.35;45.59;102621.03;5111881;28;20031;-72
2021/01/16 05:50:02;;;;;;;6.90;3.10;;;;;;;-0.38;45.85;102615.78;5110717;28;20067;-72
2021/01/16 05:52:29;;;;;;;5.57;3.00;;;;;;;-0.35;45.85;102615.88;5112803;27;20039;-71
2021/01/16 05:54:59;;;;;;;7.25;3.83;;;;;;;-0.35;46.10;102611.66;5115008;27;20055;-73
2021/01/16 05:57:26;;;;;;;8.63;3.38;;;;;;;-0.37;46.17;102609.81;5114342;28;20111;-72
2021/01/16 05:59:58;;;;;;;9.50;4.18;;;;;;;-0.42;46.61;102609.66;5113316;28;20046;-72
2021/01/16 06:02:29;;;;;;;8.13;3.47;;;;;;;-0.50;46.15;102599.94;5110612;28;20034;-72
2021/01/16 06:04:58;;;;;;;7.07;3.17;;;;;;;-0.59;46.72;102600.53;5114621;27;20126;-72
2021/01/16 06:07:26;;;;;;;9.98;3.65;;;;;;;-0.56;46.53;102595.50;5114159;28;20717;-72
2021/01/16 06:09:54;;;;;;;10.50;3.72;;;;;;;-0.53;46.41;102599.84;5111195;27;20453;-72
2021/01/16 06:12:22;;;;;;;9.02;3.30;;;;;;;-0.55;46.80;102592.09;5114446;28;20114;-72
2021/01/16 06:14:49;;;;;;;9.90;3.28;;;;;;;-0.52;46.85;102592.22;5114531;27;20031;-72
2021/01/16 06:17:17;;;;;;;8.07;3.75;;;;;;;-1.06;47.67;102592.00;5112386;27;20040;-72
2021/01/16 06:19:45;;;;;;;7.38;3.00;;;;;;;-0.56;46.77;102580.09;5115626;27;20035;-71
2021/01/16 06:22:12;;;;;;;9.23;3.67;;;;;;;-0.61;46.83;102579.94;5115126;27;20516;-72
2021/01/16 06:24:43;;;;;;;6.20;3.47;;;;;;;-0.49;47.01;102576.03;5111990;28;20552;-72
2021/01/16 06:27:20;;;;;;;8.70;3.50;;;;;;;-0.54;46.74;102570.75;5115623;27;20051;-72
2021/01/16 06:30:02;;;;;;;8.05;3.85;;;;;;;-0.68;46.99;102574.53;5112295;28;20039;-72
2021/01/16 06:32:29;;;;;;;7.88;3.33;;;;;;;-0.54;46.83;102567.31;5094104;28;20028;-72
2021/01/16 06:35:09;;;;;;;12.73;3.72;;;;;;;-0.49;46.62;102569.19;5112892;28;20243;-72
2021/01/16 06:37:49;;;;;;;8.85;4.40;;;;;;;-0.59;47.03;102562.88;5111686;27;20036;-72
2021/01/16 06:40:35;;;;;;;10.57;3.75;;;;;;;-0.54;47.05;102562.16;5125043;27;20036;-72
2021/01/16 06:43:14;;;;;;;8.70;3.70;;;;;;;-0.50;47.34;102558.84;5110449;28;20024;-72
2021/01/16 06:45:40;;;;;;;11.18;4.00;;;;;;;-0.53;46.90;102554.50;5114054;27;20032;-72
2021/01/16 06:48:10;;;;;;;7.82;3.25;;;;;;;-0.62;47.74;102556.75;5113111;28;20483;-72
2021/01/16 06:50:36;;;;;;;7.05;3.33;;;;;;;-0.62;47.42;102547.34;5111299;27;20028;-73
2021/01/16 06:53:03;;;;;;;8.27;3.28;;;;;;;-0.46;47.30;102558.13;5099813;28;20399;-72
2021/01/16 06:55:31;;;;;;;9.65;4.18;;;;;;;-0.43;47.05;102550.53;5114420;27;20024;-71
2021/01/16 06:58:16;;;;;;;12.93;4.50;;;;;;;-0.39;47.22;102557.53;5116351;27;20055;-72
2021/01/16 07:00:54;;;;;;;8.07;3.60;;;;;;;-0.41;46.93;102546.34;5112996;27;20118;-72
2021/01/16 07:03:24;;;;;;;8.38;3.45;;;;;;;-0.42;47.02;102552.28;5091891;28;20313;-72
2021/01/16 07:05:54;;;;;;;9.90;4.10;;;;;;;-0.40;47.13;102560.91;5096579;27;20027;-72
2021/01/16 07:08:22;;;;;;;11.65;4.63;;;;;;;-0.50;47.28;102554.63;5115904;27;20594;-73
2021/01/16 07:10:48;;;;;;;10.93;4.88;;;;;;;-0.73;47.48;102556.38;5113596;27;20096;-72
2021/01/16 07:13:14;;;;;;;10.20;4.25;;;;;;;-0.54;47.35;102557.03;5114030;27;20051;-73
2021/01/16 07:15:46;;;;;;;9.88;4.57;;;;;;;-0.44;47.49;102556.50;5111339;27;20042;-73
2021/01/16 07:18:12;;;;;;;10.95;4.32;;;;;;;-0.48;47.32;102558.09;5111128;28;20396;-71
2021/01/16 07:20:40;;;;;;;10.75;4.22;;;;;;;-0.63;47.58;102552.47;5099222;28;20146;-71
2021/01/16 07:23:05;;;;;;;10.23;4.85;;;;;;;-0.62;47.72;102551.63;5110521;27;20051;-71
2021/01/16 07:25:32;;;;;;;10.65;5.47;;;;;;;-0.60;47.90;102558.56;5111315;27;20039;-72
2021/01/16 07:27:57;;;;;;;8.63;4.25;;;;;;;-0.72;47.92;102547.88;5112603;27;20494;-72
2021/01/16 07:30:25;;;;;;;8.05;4.15;;;;;;;-0.64;47.63;102543.00;5109943;28;20044;-72
2021/01/16 07:32:51;;;;;;;12.15;5.40;;;;;;;-0.60;47.79;102545.72;5127576;27;20047;-73
2021/01/16 07:35:19;;;;;;;11.80;4.60;;;;;;;-0.48;47.56;102542.69;5110664;28;20023;-73
2021/01/16 07:37:46;;;;;;;10.00;4.47;;;;;;;-0.41;47.42;102548.91;5113871;27;20088;-72
2021/01/16 07:40:17;;;;;;;12.25;4.85;;;;;;;-0.50;47.41;102539.19;5113025;27;20028;-72
2021/01/16 07:42:53;;;;;;;9.95;4.45;;;;;;;-0.39;47.44;102534.41;5127125;27;20035;-71
2021/01/16 07:45:22;;;;;;;8.55;3.75;;;;;;;-0.38;47.36;102546.41;5109555;28;20027;-71
2021/01/16 07:47:51;;;;;;;14.25;5.18;;;;;;;-0.46;47.19;102540.16;5098353;27;20057;-71
2021/01/16 07:50:21;;;;;;;9.48;4.30;;;;;;;-0.56;47.75;102539.84;5112410;27;20046;-71
2021/01/16 07:53:07;;;;;;;11.10;4.75;;;;;;;-0.51;47.50;102537.44;5111781;27;20031;-71
2021/01/16 07:55:35;;;;;;;10.68;5.15;;;;;;;-0.57;48.15;102535.56;5112339;28;20499;-71
2021/01/16 07:58:22;;;;;;;9.95;4.03;;;;;;;-0.47;47.77;102530.72;5092767;28;20488;-71
2021/01/16 08:00:55;;;;;;;11.65;4.88;;;;;;;-0.38;47.55;102534.44;5098510;27;20128;-71
2021/01/16 08:03:27;;;;;;;13.13;5.57;;;;;;;-0.35;47.71;102523.38;5090883;28;20027;-71
2021/01/16 08:05:56;;;;;;;10.60;5.00;;;;;;;-0.20;47.34;102518.72;5109337;28;20054;-71
2021/01/16 08:08:32;;;;;;;10.50;5.07;;;;;;;-0.30;47.25;102513.25;5114094;27;20426;-71
2021/01/16 08:11:02;;;;;;;19.60;6.22;;;;;;;-0.44;47.85;102512.81;5114412;28;20035;-71
2021/01/16 08:13:28;;;;;;;10.50;4.72;;;;;;;-0.96;49.27;102511.97;5096423;28;20034;-71
2021/01/16 08:16:02;;;;;;;11.70;4.47;;;;;;;-0.86;49.07;102514.03;5113413;28;20035;-71
2021/01/16 08:18:32;;;;;;;21.50;4.93;;;;;;;-0.43;48.34;102514.59;5113106;28;20120;-71
2021/01/16 08:21:05;;;;;;;12.32;5.20;;;;;;;-0.30;47.66;102510.69;5129246;27;20031;-71
2021/01/16 08:23:44;;;;;;;11.30;4.93;;;;;;;-0.32;47.59;102515.78;5112689;28;20024;-71
2021/01/16 08:26:10;;;;;;;14.20;5.45;;;;;;;-0.35;47.70;102505.41;5112542;28;20042;-71
2021/01/16 08:28:37;;;;;;;9.70;4.60;;;;;;;-0.27;47.64;102503.97;5112093;28;20028;-72
2021/01/16 08:31:03;;;;;;;10.77;5.63;;;;;;;-0.20;47.72;102498.19;5112844;28;20032;-71
2021/01/16 08:33:35;;;;;;;11.93;5.50;;;;;;;-0.07;47.41;102488.28;5112291;28;20049;-71
2021/01/16 08:36:16;;;;;;;;;;;;;;;-0.06;47.58;102496.03;5114520;28;20024;-71
2021/01/16 08:38:42;;;;;;;9.27;4.25;;;;;;;-0.10;47.43;102490.75;5112486;28;20372;-71
2021/01/16 08:41:08;;;;;;;12.60;5.55;;;;;;;-0.17;47.93;102482.88;5115537;28;20035;-70
2021/01/16 08:43:34;;;;;;;11.75;5.53;;;;;;;-0.18;47.95;102485.38;5113031;28;20044;-70
2021/01/16 08:46:06;;;;;;;18.90;6.80;;;;;;;-0.14;47.98;102480.38;5110240;28;20035;-71
2021/01/16 08:48:32;;;;;;;11.40;4.85;;;;;;;-0.11;48.24;102478.72;5109806;28;20774;-72
2021/01/16 08:50:57;;;;;;;11.18;4.90;;;;;;;0.15;47.55;102482.09;5108495;28;20035;-69
2021/01/16 08:53:23;;;;;;;14.45;5.88;;;;;;;0.03;47.74;102470.63;5125535;27;20047;-71
2021/01/16 08:55:48;;;;;;;12.30;5.28;;;;;;;0.05;47.86;102475.78;5128410;27;20026;-70
2021/01/16 08:58:14;;;;;;;13.05;5.43;;;;;;;0.01;47.79;102466.22;5119837;27;20189;-71
2021/01/16 09:00:41;;;;;;;10.40;5.32;;;;;;;-0.06;48.20;102462.59;5109898;28;20039;-70
2021/01/16 09:03:11;;;;;;;14.10;6.03;;;;;;;0.02;47.98;102470.56;5112987;28;20698;-70
2021/01/16 09:05:38;;;;;;;12.30;5.63;;;;;;;0.11;47.93;102468.25;5114094;27;20118;-70
2021/01/16 09:08:26;;;;;;;17.25;6.80;;;;;;;0.07;48.00;102466.41;5106555;27;20027;-72
2021/01/16 09:10:54;;;;;;;15.00;6.00;;;;;;;0.34;47.79;102468.03;5107374;28;20039;-72
2021/01/16 09:13:30;;;;;;;15.13;6.57;;;;;;;0.34;47.40;102465.47;5109347;28;20036;-72
2021/01/16 09:15:57;;;;;;;14.50;6.05;;;;;;;0.26;47.58;102462.69;5109451;28;20055;-72
2021/01/16 09:18:24;;;;;;;16.27;6.25;;;;;;;0.17;48.04;102463.28;5112925;28;20035;-72
2021/01/16 09:20:52;;;;;;;13.48;5.82;;;;;;;0.46;47.52;102461.53;5110829;28;20127;-72
2021/01/16 09:23:30;;;;;;;18.10;6.82;;;;;;;0.28;47.65;102454.19;5108231;28;20039;-72
2021/01/16 09:25:56;;;;;;;13.88;7.60;;;;;;;0.03;47.98;102459.44;5105155;28;20038;-73
2021/01/16 09:28:45;;;;;;;13.82;6.93;;;;;;;0.16;48.67;102463.25;5094906;28;20036;-70
2021/01/16 09:31:40;;;;;;;17.20;6.05;;;;;;;0.60;47.08;102456.75;5102532;22;20052;-70
2021/01/16 09:34:20;;;;;;;14.95;5.95;;;;;;;0.62;47.24;102452.53;5020762;28;20124;-68
2021/01/16 09:37:00;;;;;;;15.88;7.10;;;;;;;0.70;46.98;102450.16;5035253;28;20112;-70
2021/01/16 09:39:30;;;;;;;15.35;6.78;;;;;;;0.43;47.48;102455.44;5026055;28;20057;-67
2021/01/16 09:42:21;;;;;;;13.23;6.60;;;;;;;0.55;47.06;102449.75;5043231;28;20868;-67
2021/01/16 09:44:46;;;;;;;14.38;6.53;;;;;;;0.50;47.24;102439.31;5029405;28;20446;-67
2021/01/16 09:47:27;;;;;;;12.07;5.70;;;;;;;0.85;46.75;102437.69;5044399;28;20064;-69
2021/01/16 09:50:02;;;;;;;12.77;6.32;;;;;;;0.78;47.12;102440.06;5028089;28;20048;-69
2021/01/16 09:52:28;;;;;;;16.00;7.07;;;;;;;0.92;46.33;102435.25;5032356;28;20048;-69
2021/01/16 09:54:55;;;;;;;16.63;6.75;;;;;;;0.91;47.04;102442.13;5027841;28;20451;-69
2021/01/16 09:57:47;;;;;;;16.08;6.35;;;;;;;0.85;46.75;102435.09;5035934;28;20124;-69
2021/01/16 10:00:15;;;;;;;16.92;6.93;;;;;;;0.67;46.67;102434.63;5030686;28;20549;-67
2021/01/16 10:02:45;;;;;;;16.85;7.20;;;;;;;1.20;45.67;102421.38;5048405;28;20052;-69
2021/01/16 10:05:26;;;;;;;11.73;6.07;;;;;;;1.24;45.62;102423.19;5050949;28;20174;-68
2021/01/16 10:07:52;;;;;;;14.27;7.03;;;;;;;1.14;45.37;102421.22;5027415;28;20041;-70
2021/01/16 10:10:17;;;;;;;17.10;7.03;;;;;;;0.97;46.48;102418.22;5050808;28;20029;-70
2021/01/16 10:12:44;;;;;;;11.30;6.55;;;;;;;0.44;48.01;102416.88;5028078;28;21073;-68
2021/01/16 10:15:13;;;;;;;14.15;6.95;;;;;;;0.59;47.44;102408.72;5046644;28;20033;-71
2021/01/16 10:17:47;;;;;;;26.05;9.00;;;;;;;1.08;46.71;102412.53;5045615;28;20080;-67
2021/01/16 10:20:16;;;;;;;12.98;5.93;;;;;;;1.54;45.11;102405.00;5030553;28;20037;-68
2021/01/16 10:22:54;;;;;;;13.35;7.13;;;;;;;1.69;45.05;102399.31;5027973;28;20037;-68
2021/01/16 10:25:21;;;;;;;14.57;6.13;;;;;;;1.87;44.54;102412.59;5033810;28;20128;-68
2021/01/16 10:27:49;;;;;;;9.80;6.05;;;;;;;1.81;44.19;102404.72;5031646;28;20080;-69
2021/01/16 10:30:18;;;;;;;15.50;6.30;;;;;;;1.37;45.65;102402.00;5021392;28;20112;-68
2021/01/16 10:32:44;;;;;;;12.43;6.80;;;;;;;1.38;46.07;102395.16;5028667;28;20063;-69
2021/01/16 10:35:31;;;;;;;13.48;6.95;;;;;;;1.69;45.65;102396.75;5033162;28;20474;-69
2021/01/16 10:38:00;;;;;;;14.02;6.38;;;;;;;0.99;46.28;102396.84;5051487;28;20442;-68
2021/01/16 10:40:29;;;;;;;12.02;5.68;;;;;;;0.04;48.49;102387.50;5032072;28;20072;-69
2021/01/16 10:42:56;;;;;;;13.18;6.97;;;;;;;0.31;48.04;102393.38;5036032;28;20407;-68
2021/01/16 10:45:29;;;;;;;15.07;6.45;;;;;;;0.73;47.70;102387.63;5034745;28;20486;-71
2021/01/16 10:47:56;;;;;;;13.13;7.20;;;;;;;0.84;47.01;102381.03;5015355;28;20114;-70
2021/01/16 10:50:24;;;;;;;12.77;5.55;;;;;;;0.92;46.89;102386.34;5029721;28;20071;-71
2021/01/16 10:53:00;;;;;;;12.07;5.93;;;;;;;0.98;46.91;102379.66;5041622;28;20637;-68
2021/01/16 10:55:55;;;;;;;18.10;7.07;;;;;;;1.27;46.50;102377.75;5047200;28;20041;-68
2021/01/16 10:58:27;;;;;;;12.02;5.68;;;;;;;0.83;47.23;102374.97;5029641;28;20026;-71
2021/01/16 11:00:54;;;;;;;13.98;6.43;;;;;;;1.06;46.88;102367.84;5041315;28;20042;-69
2021/01/16 11:03:24;;;;;;;12.60;6.03;;;;;;;0.64;47.81;102363.38;5050879;28;20029;-69
2021/01/16 11:05:52;;;;;;;13.18;6.78;;;;;;;0.83;47.11;102363.81;5032553;28;20234;-68
2021/01/16 11:08:26;;;;;;;13.32;6.53;;;;;;;0.71;47.19;102348.09;5036173;28;20059;-69
2021/01/16 11:10:52;;;;;;;14.70;6.43;;;;;;;0.91;45.97;102346.88;5029683;28;21680;-69
2021/01/16 11:13:20;;;;;;;12.65;7.18;;;;;;;0.58;47.85;102345.19;5046155;28;20045;-68
2021/01/16 11:15:51;;;;;;;15.85;6.18;;;;;;;1.44;46.08;102343.78;5048506;28;20037;-69
2021/01/16 11:18:27;;;;;;;12.15;6.05;;;;;;;1.81;45.43;102335.13;5026626;28;20034;-68
2021/01/16 11:20:58;;;;;;;14.23;6.88;;;;;;;1.67;45.59;102336.56;5030088;28;20121;-70
2021/01/16 11:23:42;;;;;;;14.30;6.20;;;;;;;1.54;46.03;102330.28;5029407;28;20033;-71
2021/01/16 11:26:10;;;;;;;14.88;7.50;;;;;;;0.82;46.67;102316.63;5033904;28;20120;-67
2021/01/16 11:28:55;;;;;;;13.60;6.07;;;;;;;1.37;46.04;102319.56;5026997;28;20047;-68
2021/01/16 11:31:34;;;;;;;12.93;6.10;;;;;;;1.63;45.47;102324.44;5022839;28;20037;-69
2021/01/16 11:34:08;;;;;;;15.00;6.25;;;;;;;1.35;45.35;102320.38;5034823;28;20048;-69
2021/01/16 11:37:04;;;;;;;15.25;6.10;;;;;;;1.40;45.72;102311.06;5029964;28;20045;-67
2021/01/16 11:39:49;;;;;;;17.60;6.75;;;;;;;1.52;46.33;102312.19;5036841;28;20045;-69
2021/01/16 11:42:17;;;;;;;14.75;6.95;;;;;;;1.87;44.96;102319.78;5031293;28;20040;-68